sensor_id;sensor_type;location;lat;lon;timestamp;P1;durP1;ratioP1;P2;durP2;ratioP2
6739;SDS011;3407;49.882;10.920;2022-07-23T00:00:21;7.17;;;5.60;;
6739;SDS011;3407;49.882;10.920;2022-07-23T00:05:16;7.13;;;5.93;;
6739;SDS011;3407;49.882;10.920;2022-07-23T00:10:12;6.70;;;5.63;;
6739;SDS011;3407;49.882;10.920;2022-07-23T00:15:07;8.00;;;6.20;;
6739;SDS011;3407;49.882;10.920;2022-07-23T00:20:05;7.90;;;5.93;;
6739;SDS011;3407;49.882;10.920;2022-07-23T00:25:01;6.57;;;5.80;;
6739;SDS011;3407;49.882;10.920;2022-07-23T00:29:57;9.93;;;6.00;;
6739;SDS011;3407;49.882;10.920;2022-07-23T00:34:53;6.80;;;6.10;;
6739;SDS011;3407;49.882;10.920;2022-07-23T00:39:48;7.60;;;6.43;;
6739;SDS011;3407;49.882;10.920;2022-07-23T00:44:44;8.23;;;6.50;;
6739;SDS011;3407;49.882;10.920;2022-07-23T00:49:39;7.07;;;6.33;;
6739;SDS011;3407;49.882;10.920;2022-07-23T00:54:35;7.20;;;6.30;;
6739;SDS011;3407;49.882;10.920;2022-07-23T00:59:31;8.43;;;6.03;;
6739;SDS011;3407;49.882;10.920;2022-07-23T01:04:26;7.07;;;6.00;;
6739;SDS011;3407;49.882;10.920;2022-07-23T01:09:22;7.23;;;5.50;;
6739;SDS011;3407;49.882;10.920;2022-07-23T01:14:18;7.33;;;6.10;;
6739;SDS011;3407;49.882;10.920;2022-07-23T01:19:14;8.00;;;6.57;;
6739;SDS011;3407;49.882;10.920;2022-07-23T01:24:10;9.20;;;6.27;;
6739;SDS011;3407;49.882;10.920;2022-07-23T01:29:06;7.50;;;6.63;;
6739;SDS011;3407;49.882;10.920;2022-07-23T01:34:02;8.60;;;6.33;;
6739;SDS011;3407;49.882;10.920;2022-07-23T01:38:59;9.57;;;6.47;;
6739;SDS011;3407;49.882;10.920;2022-07-23T01:43:54;7.47;;;6.27;;
6739;SDS011;3407;49.882;10.920;2022-07-23T01:48:50;6.83;;;5.97;;
6739;SDS011;3407;49.882;10.920;2022-07-23T01:53:46;8.17;;;6.90;;
6739;SDS011;3407;49.882;10.920;2022-07-23T01:58:41;9.13;;;6.73;;
6739;SDS011;3407;49.882;10.920;2022-07-23T02:03:37;8.07;;;6.80;;
6739;SDS011;3407;49.882;10.920;2022-07-23T02:08:32;8.63;;;6.67;;
6739;SDS011;3407;49.882;10.920;2022-07-23T02:13:28;8.87;;;6.03;;
6739;SDS011;3407;49.882;10.920;2022-07-23T02:18:24;6.97;;;6.27;;
6739;SDS011;3407;49.882;10.920;2022-07-23T02:23:20;7.23;;;6.50;;
6739;SDS011;3407;49.882;10.920;2022-07-23T02:28:15;8.57;;;5.50;;
6739;SDS011;3407;49.882;10.920;2022-07-23T02:33:11;10.90;;;6.60;;
6739;SDS011;3407;49.882;10.920;2022-07-23T02:38:06;9.13;;;6.47;;
6739;SDS011;3407;49.882;10.920;2022-07-23T02:43:02;6.70;;;6.00;;
6739;SDS011;3407;49.882;10.920;2022-07-23T02:47:57;6.77;;;6.00;;
6739;SDS011;3407;49.882;10.920;2022-07-23T02:52:53;7.90;;;5.73;;
6739;SDS011;3407;49.882;10.920;2022-07-23T02:57:48;9.33;;;6.73;;
6739;SDS011;3407;49.882;10.920;2022-07-23T03:02:44;8.37;;;6.30;;
6739;SDS011;3407;49.882;10.920;2022-07-23T03:07:40;7.37;;;6.27;;
6739;SDS011;3407;49.882;10.920;2022-07-23T03:12:35;8.90;;;6.40;;
6739;SDS011;3407;49.882;10.920;2022-07-23T03:17:31;9.47;;;6.33;;
6739;SDS011;3407;49.882;10.920;2022-07-23T03:22:26;8.17;;;7.00;;
6739;SDS011;3407;49.882;10.920;2022-07-23T03:27:22;7.73;;;6.93;;
6739;SDS011;3407;49.882;10.920;2022-07-23T03:32:22;11.80;;;6.63;;
6739;SDS011;3407;49.882;10.920;2022-07-23T03:37:19;9.70;;;6.97;;
6739;SDS011;3407;49.882;10.920;2022-07-23T03:42:15;7.40;;;6.63;;
6739;SDS011;3407;49.882;10.920;2022-07-23T03:47:10;8.67;;;7.03;;
6739;SDS011;3407;49.882;10.920;2022-07-23T03:52:06;7.90;;;6.67;;
6739;SDS011;3407;49.882;10.920;2022-07-23T03:57:01;7.03;;;6.33;;
6739;SDS011;3407;49.882;10.920;2022-07-23T04:01:57;10.20;;;6.97;;
6739;SDS011;3407;49.882;10.920;2022-07-23T04:06:52;7.90;;;6.70;;
6739;SDS011;3407;49.882;10.920;2022-07-23T04:11:48;8.97;;;6.47;;
6739;SDS011;3407;49.882;10.920;2022-07-23T04:16:44;9.20;;;7.37;;
6739;SDS011;3407;49.882;10.920;2022-07-23T04:21:39;7.77;;;6.50;;
6739;SDS011;3407;49.882;10.920;2022-07-23T04:26:35;9.20;;;7.03;;
6739;SDS011;3407;49.882;10.920;2022-07-23T04:31:31;10.77;;;6.93;;
6739;SDS011;3407;49.882;10.920;2022-07-23T04:36:26;8.10;;;6.93;;
6739;SDS011;3407;49.882;10.920;2022-07-23T04:41:22;8.13;;;7.00;;
6739;SDS011;3407;49.882;10.920;2022-07-23T04:46:17;9.63;;;6.53;;
6739;SDS011;3407;49.882;10.920;2022-07-23T04:51:13;12.17;;;7.07;;
6739;SDS011;3407;49.882;10.920;2022-07-23T04:56:08;8.73;;;6.43;;
6739;SDS011;3407;49.882;10.920;2022-07-23T05:01:04;9.73;;;6.60;;
6739;SDS011;3407;49.882;10.920;2022-07-23T05:05:59;7.77;;;6.53;;
6739;SDS011;3407;49.882;10.920;2022-07-23T05:10:55;8.30;;;6.13;;
6739;SDS011;3407;49.882;10.920;2022-07-23T05:15:51;8.70;;;5.83;;
6739;SDS011;3407;49.882;10.920;2022-07-23T05:20:47;11.43;;;7.20;;
6739;SDS011;3407;49.882;10.920;2022-07-23T05:25:42;7.63;;;6.37;;
6739;SDS011;3407;49.882;10.920;2022-07-23T05:30:38;8.47;;;5.90;;
6739;SDS011;3407;49.882;10.920;2022-07-23T05:35:33;6.27;;;5.67;;
6739;SDS011;3407;49.882;10.920;2022-07-23T05:40:29;6.83;;;5.67;;
6739;SDS011;3407;49.882;10.920;2022-07-23T05:45:24;7.07;;;6.17;;
6739;SDS011;3407;49.882;10.920;2022-07-23T05:50:20;10.37;;;5.87;;
6739;SDS011;3407;49.882;10.920;2022-07-23T05:55:16;8.70;;;5.83;;
6739;SDS011;3407;49.882;10.920;2022-07-23T06:00:11;7.70;;;5.57;;
6739;SDS011;3407;49.882;10.920;2022-07-23T06:05:07;6.90;;;5.50;;
6739;SDS011;3407;49.882;10.920;2022-07-23T06:10:04;9.10;;;5.63;;
6739;SDS011;3407;49.882;10.920;2022-07-23T06:15:00;6.37;;;5.07;;
6739;SDS011;3407;49.882;10.920;2022-07-23T06:19:56;6.07;;;5.47;;
6739;SDS011;3407;49.882;10.920;2022-07-23T06:24:52;7.63;;;6.20;;
6739;SDS011;3407;49.882;10.920;2022-07-23T06:29:47;7.60;;;6.50;;
6739;SDS011;3407;49.882;10.920;2022-07-23T06:34:43;6.67;;;5.83;;
6739;SDS011;3407;49.882;10.920;2022-07-23T06:39:38;7.83;;;5.43;;
6739;SDS011;3407;49.882;10.920;2022-07-23T06:44:34;6.93;;;5.20;;
6739;SDS011;3407;49.882;10.920;2022-07-23T06:49:29;9.87;;;6.90;;
6739;SDS011;3407;49.882;10.920;2022-07-23T06:54:25;6.33;;;5.73;;
6739;SDS011;3407;49.882;10.920;2022-07-23T06:59:20;6.33;;;5.50;;
6739;SDS011;3407;49.882;10.920;2022-07-23T07:04:16;8.77;;;7.87;;
6739;SDS011;3407;49.882;10.920;2022-07-23T07:09:12;6.17;;;5.00;;
6739;SDS011;3407;49.882;10.920;2022-07-23T07:14:07;6.33;;;4.90;;
6739;SDS011;3407;49.882;10.920;2022-07-23T07:19:03;7.50;;;5.53;;
6739;SDS011;3407;49.882;10.920;2022-07-23T07:23:58;8.00;;;5.20;;
6739;SDS011;3407;49.882;10.920;2022-07-23T07:28:54;5.53;;;4.80;;
6739;SDS011;3407;49.882;10.920;2022-07-23T07:33:49;6.40;;;5.23;;
6739;SDS011;3407;49.882;10.920;2022-07-23T07:38:46;7.47;;;5.17;;
6739;SDS011;3407;49.882;10.920;2022-07-23T07:43:41;5.80;;;4.00;;
6739;SDS011;3407;49.882;10.920;2022-07-23T07:48:37;4.23;;;3.83;;
6739;SDS011;3407;49.882;10.920;2022-07-23T07:53:32;10.33;;;8.17;;
6739;SDS011;3407;49.882;10.920;2022-07-23T07:58:28;4.93;;;4.40;;
6739;SDS011;3407;49.882;10.920;2022-07-23T08:03:24;4.47;;;3.87;;
6739;SDS011;3407;49.882;10.920;2022-07-23T08:08:19;3.93;;;3.40;;
6739;SDS011;3407;49.882;10.920;2022-07-23T08:13:15;4.47;;;3.60;;
6739;SDS011;3407;49.882;10.920;2022-07-23T08:18:11;6.33;;;4.03;;
6739;SDS011;3407;49.882;10.920;2022-07-23T08:23:07;4.93;;;4.00;;
6739;SDS011;3407;49.882;10.920;2022-07-23T08:28:04;6.97;;;4.00;;
6739;SDS011;3407;49.882;10.920;2022-07-23T08:33:02;4.57;;;4.10;;
6739;SDS011;3407;49.882;10.920;2022-07-23T08:38:07;4.07;;;3.63;;
6739;SDS011;3407;49.882;10.920;2022-07-23T08:43:07;6.10;;;4.47;;
6739;SDS011;3407;49.882;10.920;2022-07-23T08:48:06;4.87;;;4.20;;
6739;SDS011;3407;49.882;10.920;2022-07-23T08:53:06;4.93;;;4.10;;
6739;SDS011;3407;49.882;10.920;2022-07-23T08:58:02;5.40;;;4.13;;
6739;SDS011;3407;49.882;10.920;2022-07-23T09:02:58;6.67;;;4.17;;
6739;SDS011;3407;49.882;10.920;2022-07-23T09:08:06;5.50;;;4.30;;
6739;SDS011;3407;49.882;10.920;2022-07-23T09:13:05;4.30;;;4.00;;
6739;SDS011;3407;49.882;10.920;2022-07-23T09:18:00;6.47;;;4.23;;
6739;SDS011;3407;49.882;10.920;2022-07-23T09:22:56;7.27;;;4.90;;
6739;SDS011;3407;49.882;10.920;2022-07-23T09:27:56;6.33;;;5.17;;
6739;SDS011;3407;49.882;10.920;2022-07-23T09:33:12;5.80;;;5.00;;
6739;SDS011;3407;49.882;10.920;2022-07-23T09:38:10;6.07;;;5.37;;
6739;SDS011;3407;49.882;10.920;2022-07-23T09:43:05;5.17;;;4.67;;
6739;SDS011;3407;49.882;10.920;2022-07-23T09:48:15;7.77;;;5.53;;
6739;SDS011;3407;49.882;10.920;2022-07-23T09:53:24;5.63;;;5.13;;
6739;SDS011;3407;49.882;10.920;2022-07-23T09:58:21;5.50;;;5.00;;
6739;SDS011;3407;49.882;10.920;2022-07-23T10:03:17;7.00;;;5.13;;
6739;SDS011;3407;49.882;10.920;2022-07-23T10:08:14;6.33;;;5.03;;
6739;SDS011;3407;49.882;10.920;2022-07-23T10:13:13;6.63;;;4.87;;
6739;SDS011;3407;49.882;10.920;2022-07-23T10:18:25;11.90;;;5.73;;
6739;SDS011;3407;49.882;10.920;2022-07-23T10:23:27;8.47;;;5.70;;
6739;SDS011;3407;49.882;10.920;2022-07-23T10:28:33;7.87;;;5.37;;
6739;SDS011;3407;49.882;10.920;2022-07-23T10:33:44;8.27;;;5.60;;
6739;SDS011;3407;49.882;10.920;2022-07-23T10:38:51;8.83;;;5.57;;
6739;SDS011;3407;49.882;10.920;2022-07-23T10:44:06;6.57;;;5.33;;
6739;SDS011;3407;49.882;10.920;2022-07-23T10:49:23;6.83;;;5.00;;
6739;SDS011;3407;49.882;10.920;2022-07-23T10:54:21;9.45;;;7.20;;
6739;SDS011;3407;49.882;10.920;2022-07-23T10:59:17;6.28;;;4.95;;
6739;SDS011;3407;49.882;10.920;2022-07-23T11:04:13;6.60;;;6.00;;
6739;SDS011;3407;49.882;10.920;2022-07-23T11:09:28;6.05;;;5.43;;
6739;SDS011;3407;49.882;10.920;2022-07-23T11:25:11;5.82;;;5.28;;
6739;SDS011;3407;49.882;10.920;2022-07-23T11:35:24;4.95;;;4.47;;
6739;SDS011;3407;49.882;10.920;2022-07-23T11:40:21;7.28;;;4.97;;
6739;SDS011;3407;49.882;10.920;2022-07-23T11:45:16;6.30;;;4.55;;
6739;SDS011;3407;49.882;10.920;2022-07-23T11:50:12;5.10;;;4.60;;
6739;SDS011;3407;49.882;10.920;2022-07-23T11:55:09;5.75;;;5.25;;
6739;SDS011;3407;49.882;10.920;2022-07-23T12:05:06;7.00;;;5.10;;
6739;SDS011;3407;49.882;10.920;2022-07-23T12:10:09;8.07;;;4.70;;
6739;SDS011;3407;49.882;10.920;2022-07-23T12:15:05;5.43;;;4.93;;
6739;SDS011;3407;49.882;10.920;2022-07-23T12:20:02;6.32;;;5.05;;
6739;SDS011;3407;49.882;10.920;2022-07-23T12:25:11;5.50;;;4.68;;
6739;SDS011;3407;49.882;10.920;2022-07-23T12:30:15;6.57;;;4.93;;
6739;SDS011;3407;49.882;10.920;2022-07-23T12:35:15;7.95;;;5.18;;
6739;SDS011;3407;49.882;10.920;2022-07-23T12:40:21;5.28;;;4.78;;
6739;SDS011;3407;49.882;10.920;2022-07-23T12:45:19;5.25;;;4.53;;
6739;SDS011;3407;49.882;10.920;2022-07-23T12:55:33;5.25;;;4.75;;
6739;SDS011;3407;49.882;10.920;2022-07-23T13:00:29;5.13;;;4.40;;
6739;SDS011;3407;49.882;10.920;2022-07-23T13:05:25;5.88;;;4.47;;
6739;SDS011;3407;49.882;10.920;2022-07-23T13:10:21;3.97;;;3.67;;
6739;SDS011;3407;49.882;10.920;2022-07-23T13:15:16;4.10;;;3.72;;
6739;SDS011;3407;49.882;10.920;2022-07-23T13:20:12;4.65;;;3.83;;
6739;SDS011;3407;49.882;10.920;2022-07-23T13:25:08;4.32;;;3.92;;
6739;SDS011;3407;49.882;10.920;2022-07-23T13:30:04;5.53;;;4.13;;
6739;SDS011;3407;49.882;10.920;2022-07-23T13:35:01;4.25;;;3.95;;
6739;SDS011;3407;49.882;10.920;2022-07-23T13:39:56;5.88;;;4.85;;
6739;SDS011;3407;49.882;10.920;2022-07-23T13:44:52;4.87;;;4.37;;
6739;SDS011;3407;49.882;10.920;2022-07-23T13:49:47;5.07;;;4.10;;
6739;SDS011;3407;49.882;10.920;2022-07-23T13:54:43;5.53;;;4.10;;
6739;SDS011;3407;49.882;10.920;2022-07-23T13:59:38;4.93;;;4.27;;
6739;SDS011;3407;49.882;10.920;2022-07-23T14:04:34;6.00;;;4.47;;
6739;SDS011;3407;49.882;10.920;2022-07-23T14:09:30;4.73;;;4.33;;
6739;SDS011;3407;49.882;10.920;2022-07-23T14:14:28;6.80;;;4.17;;
6739;SDS011;3407;49.882;10.920;2022-07-23T14:19:24;6.63;;;4.10;;
6739;SDS011;3407;49.882;10.920;2022-07-23T14:24:20;4.30;;;3.73;;
6739;SDS011;3407;49.882;10.920;2022-07-23T14:29:15;5.17;;;4.73;;
6739;SDS011;3407;49.882;10.920;2022-07-23T14:34:11;4.10;;;3.67;;
6739;SDS011;3407;49.882;10.920;2022-07-23T14:39:07;5.53;;;5.03;;
6739;SDS011;3407;49.882;10.920;2022-07-23T14:44:03;5.23;;;4.00;;
6739;SDS011;3407;49.882;10.920;2022-07-23T14:48:59;5.77;;;3.87;;
6739;SDS011;3407;49.882;10.920;2022-07-23T14:53:55;4.17;;;3.77;;
6739;SDS011;3407;49.882;10.920;2022-07-23T14:58:51;4.40;;;4.00;;
6739;SDS011;3407;49.882;10.920;2022-07-23T15:03:46;4.77;;;3.70;;
6739;SDS011;3407;49.882;10.920;2022-07-23T15:08:43;4.30;;;3.90;;
6739;SDS011;3407;49.882;10.920;2022-07-23T15:13:38;8.60;;;5.03;;
6739;SDS011;3407;49.882;10.920;2022-07-23T15:18:34;4.83;;;3.93;;
6739;SDS011;3407;49.882;10.920;2022-07-23T15:23:30;4.93;;;3.90;;
6739;SDS011;3407;49.882;10.920;2022-07-23T15:28:26;4.97;;;3.80;;
6739;SDS011;3407;49.882;10.920;2022-07-23T15:33:21;4.43;;;3.83;;
6739;SDS011;3407;49.882;10.920;2022-07-23T15:38:17;6.00;;;4.27;;
6739;SDS011;3407;49.882;10.920;2022-07-23T15:43:12;4.13;;;3.60;;
6739;SDS011;3407;49.882;10.920;2022-07-23T15:48:08;4.93;;;4.23;;
6739;SDS011;3407;49.882;10.920;2022-07-23T15:53:04;3.83;;;3.53;;
6739;SDS011;3407;49.882;10.920;2022-07-23T15:57:59;5.20;;;4.70;;
6739;SDS011;3407;49.882;10.920;2022-07-23T16:02:55;4.20;;;3.73;;
6739;SDS011;3407;49.882;10.920;2022-07-23T16:07:50;3.90;;;3.60;;
6739;SDS011;3407;49.882;10.920;2022-07-23T16:12:46;4.47;;;3.93;;
6739;SDS011;3407;49.882;10.920;2022-07-23T16:17:42;4.90;;;4.10;;
6739;SDS011;3407;49.882;10.920;2022-07-23T16:22:38;4.73;;;4.13;;
6739;SDS011;3407;49.882;10.920;2022-07-23T16:27:35;4.43;;;3.87;;
6739;SDS011;3407;49.882;10.920;2022-07-23T16:32:31;7.43;;;3.90;;
6739;SDS011;3407;49.882;10.920;2022-07-23T16:37:27;4.27;;;3.87;;
6739;SDS011;3407;49.882;10.920;2022-07-23T16:42:22;4.43;;;4.03;;
6739;SDS011;3407;49.882;10.920;2022-07-23T16:47:18;4.80;;;4.30;;
6739;SDS011;3407;49.882;10.920;2022-07-23T16:52:17;4.77;;;3.90;;
6739;SDS011;3407;49.882;10.920;2022-07-23T16:57:13;7.40;;;4.13;;
6739;SDS011;3407;49.882;10.920;2022-07-23T17:02:08;4.37;;;3.70;;
6739;SDS011;3407;49.882;10.920;2022-07-23T17:07:04;4.27;;;3.70;;
6739;SDS011;3407;49.882;10.920;2022-07-23T17:12:00;4.37;;;3.47;;
6739;SDS011;3407;49.882;10.920;2022-07-23T17:16:58;5.07;;;3.60;;
6739;SDS011;3407;49.882;10.920;2022-07-23T17:21:53;4.67;;;3.87;;
6739;SDS011;3407;49.882;10.920;2022-07-23T17:26:49;3.83;;;3.53;;
6739;SDS011;3407;49.882;10.920;2022-07-23T17:31:44;4.90;;;3.50;;
6739;SDS011;3407;49.882;10.920;2022-07-23T17:36:40;3.80;;;3.27;;
6739;SDS011;3407;49.882;10.920;2022-07-23T17:41:35;4.80;;;3.77;;
6739;SDS011;3407;49.882;10.920;2022-07-23T17:46:31;6.10;;;4.03;;
6739;SDS011;3407;49.882;10.920;2022-07-23T17:51:27;4.03;;;3.63;;
6739;SDS011;3407;49.882;10.920;2022-07-23T17:56:22;3.43;;;3.13;;
6739;SDS011;3407;49.882;10.920;2022-07-23T18:01:18;4.17;;;3.47;;
6739;SDS011;3407;49.882;10.920;2022-07-23T18:06:14;7.30;;;3.30;;
6739;SDS011;3407;49.882;10.920;2022-07-23T18:11:10;3.40;;;3.10;;
6739;SDS011;3407;49.882;10.920;2022-07-23T18:16:06;3.40;;;3.10;;
6739;SDS011;3407;49.882;10.920;2022-07-23T18:21:02;5.50;;;3.40;;
6739;SDS011;3407;49.882;10.920;2022-07-23T18:25:59;5.10;;;3.27;;
6739;SDS011;3407;49.882;10.920;2022-07-23T18:30:55;8.07;;;3.27;;
6739;SDS011;3407;49.882;10.920;2022-07-23T18:35:51;4.00;;;3.53;;
6739;SDS011;3407;49.882;10.920;2022-07-23T18:40:47;4.53;;;3.17;;
6739;SDS011;3407;49.882;10.920;2022-07-23T18:45:43;5.60;;;2.90;;
6739;SDS011;3407;49.882;10.920;2022-07-23T18:50:39;4.00;;;3.37;;
6739;SDS011;3407;49.882;10.920;2022-07-23T18:55:36;5.23;;;3.53;;
6739;SDS011;3407;49.882;10.920;2022-07-23T19:00:34;4.30;;;3.47;;
6739;SDS011;3407;49.882;10.920;2022-07-23T19:05:31;4.30;;;3.30;;
6739;SDS011;3407;49.882;10.920;2022-07-23T19:10:27;4.83;;;3.00;;
6739;SDS011;3407;49.882;10.920;2022-07-23T19:15:22;4.13;;;3.50;;
6739;SDS011;3407;49.882;10.920;2022-07-23T19:20:18;6.33;;;3.40;;
6739;SDS011;3407;49.882;10.920;2022-07-23T19:25:14;5.63;;;3.63;;
6739;SDS011;3407;49.882;10.920;2022-07-23T19:30:10;5.73;;;3.43;;
6739;SDS011;3407;49.882;10.920;2022-07-23T19:35:06;5.20;;;3.50;;
6739;SDS011;3407;49.882;10.920;2022-07-23T19:40:03;3.50;;;3.20;;
6739;SDS011;3407;49.882;10.920;2022-07-23T19:45:01;3.87;;;3.37;;
6739;SDS011;3407;49.882;10.920;2022-07-23T19:49:58;3.93;;;3.50;;
6739;SDS011;3407;49.882;10.920;2022-07-23T19:54:54;3.67;;;3.37;;
6739;SDS011;3407;49.882;10.920;2022-07-23T19:59:49;4.07;;;3.30;;
6739;SDS011;3407;49.882;10.920;2022-07-23T20:04:45;4.90;;;3.43;;
6739;SDS011;3407;49.882;10.920;2022-07-23T20:09:40;4.27;;;3.87;;
6739;SDS011;3407;49.882;10.920;2022-07-23T20:14:36;8.07;;;6.00;;
6739;SDS011;3407;49.882;10.920;2022-07-23T20:19:33;5.60;;;3.73;;
6739;SDS011;3407;49.882;10.920;2022-07-23T20:24:29;5.40;;;3.93;;
6739;SDS011;3407;49.882;10.920;2022-07-23T20:29:25;3.93;;;3.50;;
6739;SDS011;3407;49.882;10.920;2022-07-23T20:34:20;3.87;;;3.30;;
6739;SDS011;3407;49.882;10.920;2022-07-23T20:39:16;9.73;;;3.87;;
6739;SDS011;3407;49.882;10.920;2022-07-23T20:44:12;6.43;;;3.90;;
6739;SDS011;3407;49.882;10.920;2022-07-23T20:49:08;6.00;;;4.43;;
6739;SDS011;3407;49.882;10.920;2022-07-23T20:54:04;8.33;;;4.97;;
6739;SDS011;3407;49.882;10.920;2022-07-23T20:59:00;6.73;;;3.80;;
6739;SDS011;3407;49.882;10.920;2022-07-23T21:03:55;6.83;;;4.03;;
6739;SDS011;3407;49.882;10.920;2022-07-23T21:08:51;3.97;;;3.57;;
6739;SDS011;3407;49.882;10.920;2022-07-23T21:13:48;4.20;;;3.80;;
6739;SDS011;3407;49.882;10.920;2022-07-23T21:18:44;6.80;;;5.17;;
6739;SDS011;3407;49.882;10.920;2022-07-23T21:23:40;5.50;;;4.87;;
6739;SDS011;3407;49.882;10.920;2022-07-23T21:28:38;5.63;;;4.87;;
6739;SDS011;3407;49.882;10.920;2022-07-23T21:33:34;5.57;;;4.30;;
6739;SDS011;3407;49.882;10.920;2022-07-23T21:38:31;4.40;;;3.77;;
6739;SDS011;3407;49.882;10.920;2022-07-23T21:43:26;5.47;;;4.93;;
6739;SDS011;3407;49.882;10.920;2022-07-23T21:48:22;4.77;;;4.27;;
6739;SDS011;3407;49.882;10.920;2022-07-23T21:53:18;4.83;;;4.33;;
6739;SDS011;3407;49.882;10.920;2022-07-23T21:58:13;6.53;;;5.00;;
6739;SDS011;3407;49.882;10.920;2022-07-23T22:03:09;5.27;;;4.37;;
6739;SDS011;3407;49.882;10.920;2022-07-23T22:08:04;8.17;;;4.90;;
6739;SDS011;3407;49.882;10.920;2022-07-23T22:13:00;5.53;;;4.53;;
6739;SDS011;3407;49.882;10.920;2022-07-23T22:17:56;5.87;;;4.83;;
6739;SDS011;3407;49.882;10.920;2022-07-23T22:22:52;8.53;;;5.20;;
6739;SDS011;3407;49.882;10.920;2022-07-23T22:27:48;9.70;;;5.30;;
6739;SDS011;3407;49.882;10.920;2022-07-23T22:32:44;8.63;;;5.57;;
6739;SDS011;3407;49.882;10.920;2022-07-23T22:37:40;6.17;;;5.03;;
6739;SDS011;3407;49.882;10.920;2022-07-23T22:42:35;7.33;;;4.87;;
6739;SDS011;3407;49.882;10.920;2022-07-23T22:47:31;6.77;;;5.13;;
6739;SDS011;3407;49.882;10.920;2022-07-23T22:52:26;6.13;;;5.17;;
6739;SDS011;3407;49.882;10.920;2022-07-23T22:57:22;8.67;;;5.20;;
6739;SDS011;3407;49.882;10.920;2022-07-23T23:02:17;9.10;;;5.63;;
6739;SDS011;3407;49.882;10.920;2022-07-23T23:07:13;6.03;;;4.80;;
6739;SDS011;3407;49.882;10.920;2022-07-23T23:12:09;7.67;;;5.23;;
6739;SDS011;3407;49.882;10.920;2022-07-23T23:17:04;6.50;;;5.07;;
6739;SDS011;3407;49.882;10.920;2022-07-23T23:22:00;8.20;;;4.73;;
6739;SDS011;3407;49.882;10.920;2022-07-23T23:26:55;5.23;;;4.73;;
6739;SDS011;3407;49.882;10.920;2022-07-23T23:31:51;5.70;;;4.47;;
6739;SDS011;3407;49.882;10.920;2022-07-23T23:36:46;5.90;;;4.83;;
6739;SDS011;3407;49.882;10.920;2022-07-23T23:41:42;5.67;;;4.90;;
6739;SDS011;3407;49.882;10.920;2022-07-23T23:46:38;5.77;;;4.97;;
6739;SDS011;3407;49.882;10.920;2022-07-23T23:51:33;6.03;;;5.10;;
6739;SDS011;3407;49.882;10.920;2022-07-23T23:56:30;5.77;;;5.03;;
